sensor_id;sensor_type;location;lat;lon;timestamp;pressure;altitude;pressure_sealevel;temperature;humidity
31162;BME280;17796;49.296;-117.656;2023-03-21T00:06:11;95200;;;9.42744;33.86862
31162;BME280;17796;49.296;-117.656;2023-03-21T00:21:16;95200;;;10.75627;34.88596
31162;BME280;17796;49.296;-117.656;2023-03-21T00:36:20;95200;;;9.36392;37.61563
31162;BME280;17796;49.296;-117.656;2023-03-21T00:51:24;95200;;;9.03171;37.51476
31162;BME280;17796;49.296;-117.656;2023-03-21T01:06:28;95200;;;9.14795;38.51348
31162;BME280;17796;49.296;-117.656;2023-03-21T01:21:31;95200;;;7.69687;39.75025
31162;BME280;17796;49.296;-117.656;2023-03-21T01:36:35;95200;;;6.18897;44.63794
31162;BME280;17796;49.296;-117.656;2023-03-21T01:51:40;95200;;;6.06321;44.6416
31162;BME280;17796;49.296;-117.656;2023-03-21T02:06:48;95200;;;4.87894;47.29378
31162;BME280;17796;49.296;-117.656;2023-03-21T02:22:01;95200;;;5.48933;44.33106
31162;BME280;17796;49.296;-117.656;2023-03-21T02:37:21;95300;;;4.37685;47.38841
31162;BME280;17796;49.296;-117.656;2023-03-21T02:52:30;95300;;;4.52961;46.1498
31162;BME280;17796;49.296;-117.656;2023-03-21T03:07:37;95300;;;4.27459;47.31932
31162;BME280;17796;49.296;-117.656;2023-03-21T03:22:51;95300;;;2.68989;49.75549
31162;BME280;17796;49.296;-117.656;2023-03-21T03:38:03;95400;;;3.74519;46.93495
31162;BME280;17796;49.296;-117.656;2023-03-21T03:53:11;95400;;;2.50888;50.12688
31162;BME280;17796;49.296;-117.656;2023-03-21T04:08:21;95400;;;2.56668;50.79319
31162;BME280;17796;49.296;-117.656;2023-03-21T04:23:24;95400;;;2.03316;52.51268
31162;BME280;17796;49.296;-117.656;2023-03-21T04:38:28;95400;;;2.00204;52.03064
31162;BME280;17796;49.296;-117.656;2023-03-21T04:53:32;95500;;;2.03062;50.94228
31162;BME280;17796;49.296;-117.656;2023-03-21T05:08:36;95500;;;1.2945;53.93186
31162;BME280;17796;49.296;-117.656;2023-03-21T05:23:39;95500;;;1.29767;52.97203
31162;BME280;17796;49.296;-117.656;2023-03-21T05:38:43;95500;;;0.99725;53.03259
31162;BME280;17796;49.296;-117.656;2023-03-21T05:53:47;95600;;;0.62665;56.35556
31162;BME280;17796;49.296;-117.656;2023-03-21T06:08:51;95600;;;-0.22505;56.954
31162;BME280;17796;49.296;-117.656;2023-03-21T06:23:54;95600;;;0.11696;55.1559
31162;BME280;17796;49.296;-117.656;2023-03-21T06:38:58;95600;;;-0.3038;57.65302
31162;BME280;17796;49.296;-117.656;2023-03-21T06:54:02;95600;;;-0.15169;56.14446
31162;BME280;17796;49.296;-117.656;2023-03-21T07:09:05;95600;;;-0.2603;55.61224
31162;BME280;17796;49.296;-117.656;2023-03-21T07:24:09;95600;;;-0.90526;57.0864
31162;BME280;17796;49.296;-117.656;2023-03-21T07:39:13;95600;;;-1.17614;58.88656
31162;BME280;17796;49.296;-117.656;2023-03-21T07:54:16;95700;;;-1.69789;61.42357
31162;BME280;17796;49.296;-117.656;2023-03-21T08:09:20;95700;;;-1.12565;59.36017
31162;BME280;17796;49.296;-117.656;2023-03-21T08:24:24;95700;;;-1.18313;60.62168
31162;BME280;17796;49.296;-117.656;2023-03-21T08:39:27;95700;;;-1.82396;60.51459
31162;BME280;17796;49.296;-117.656;2023-03-21T08:54:31;95700;;;-2.28727;62.37141
31162;BME280;17796;49.296;-117.656;2023-03-21T09:09:35;95700;;;-1.65375;59.40315
31162;BME280;17796;49.296;-117.656;2023-03-21T09:24:38;95800;;;-1.91065;58.93022
31162;BME280;17796;49.296;-117.656;2023-03-21T09:39:42;95800;;;-2.22566;60.87961
31162;BME280;17796;49.296;-117.656;2023-03-21T09:54:46;95800;;;-2.40095;62.0372
31162;BME280;17796;49.296;-117.656;2023-03-21T10:09:50;95800;;;-2.08562;60.86579
31162;BME280;17796;49.296;-117.656;2023-03-21T10:24:53;95800;;;-2.3476;60.7853
31162;BME280;17796;49.296;-117.656;2023-03-21T10:39:57;95800;;;-2.6623;62.58298
31162;BME280;17796;49.296;-117.656;2023-03-21T10:55:04;95800;;;-2.74105;63.86954
31162;BME280;17796;49.296;-117.656;2023-03-21T11:10:25;95800;;;-3.23548;65.01274
31162;BME280;17796;49.296;-117.656;2023-03-21T11:25:32;95800;;;-2.74645;63.42244
31162;BME280;17796;49.296;-117.656;2023-03-21T11:40:40;95800;;;-2.75344;63.32937
31162;BME280;17796;49.296;-117.656;2023-03-21T11:55:59;95900;;;-3.23707;64.02791
31162;BME280;17796;49.296;-117.656;2023-03-21T12:11:18;95900;;;-3.66862;65.29862
31162;BME280;17796;49.296;-117.656;2023-03-21T12:26:30;95900;;;-3.79278;66.03966
31162;BME280;17796;49.296;-117.656;2023-03-21T12:41:40;95900;;;-3.98363;66.62874
31162;BME280;17796;49.296;-117.656;2023-03-21T12:56:51;95900;;;-4.25322;68.84876
31162;BME280;17796;49.296;-117.656;2023-03-21T13:11:58;95900;;;-4.48503;71.34903
31162;BME280;17796;49.296;-117.656;2023-03-21T13:27:16;95900;;;-4.00109;68.51564
31162;BME280;17796;49.296;-117.656;2023-03-21T13:42:30;95900;;;-3.37711;63.51286
31162;BME280;17796;49.296;-117.656;2023-03-21T13:57:36;95900;;;-3.38663;64.63274
31162;BME280;17796;49.296;-117.656;2023-03-21T14:12:39;96000;;;-3.81596;69.0832
31162;BME280;17796;49.296;-117.656;2023-03-21T14:27:46;96000;;;-4.02142;67.9391
31162;BME280;17796;49.296;-117.656;2023-03-21T14:42:52;96000;;;-3.2666;68.21287
31162;BME280;17796;49.296;-117.656;2023-03-21T14:57:56;96000;;;-0.65947;63.71293
31162;BME280;17796;49.296;-117.656;2023-03-21T15:13:01;96000;;;0.42532;59.04086
31162;BME280;17796;49.296;-117.656;2023-03-21T15:28:16;96000;;;-1.19646;63.18684
31162;BME280;17796;49.296;-117.656;2023-03-21T15:43:19;96000;;;-0.08342;61.369
31162;BME280;17796;49.296;-117.656;2023-03-21T15:58:26;96000;;;0.2116;60.77643
31162;BME280;17796;49.296;-117.656;2023-03-21T16:13:34;96000;;;0.21382;59.32111
31162;BME280;17796;49.296;-117.656;2023-03-21T16:28:38;96000;;;2.20687;53.09948
31162;BME280;17796;49.296;-117.656;2023-03-21T16:43:42;96000;;;3.84904;50.39416
31162;BME280;17796;49.296;-117.656;2023-03-21T16:58:46;96000;;;2.74865;52.03962
31162;BME280;17796;49.296;-117.656;2023-03-21T17:13:51;96000;;;4.59439;47.47127
31162;BME280;17796;49.296;-117.656;2023-03-21T17:28:56;95900;;;5.06346;45.46292
31162;BME280;17796;49.296;-117.656;2023-03-21T17:44:00;95900;;;6.45701;41.97066
31162;BME280;17796;49.296;-117.656;2023-03-21T17:59:04;95900;;;7.2513;39.37798
31162;BME280;17796;49.296;-117.656;2023-03-21T18:14:12;95900;;;8.66299;37.52122
31162;BME280;17796;49.296;-117.656;2023-03-21T18:29:15;95800;;;8.27267;36.33315
31162;BME280;17796;49.296;-117.656;2023-03-21T18:44:19;95800;;;8.02209;34.1089
31162;BME280;17796;49.296;-117.656;2023-03-21T18:59:24;95800;;;9.03489;34.61848
31162;BME280;17796;49.296;-117.656;2023-03-21T19:14:27;95800;;;9.39123;33.25832
31162;BME280;17796;49.296;-117.656;2023-03-21T19:29:31;95700;;;8.67315;35.49632
31162;BME280;17796;49.296;-117.656;2023-03-21T19:44:35;95700;;;9.47508;28.81437
31162;BME280;17796;49.296;-117.656;2023-03-21T19:59:38;95700;;;10.42882;31.10203
31162;BME280;17796;49.296;-117.656;2023-03-21T20:14:42;95700;;;12.09528;26.73643
31162;BME280;17796;49.296;-117.656;2023-03-21T20:29:46;95600;;;12.97093;25.48318
31162;BME280;17796;49.296;-117.656;2023-03-21T20:44:49;95600;;;12.12768;26.6785
31162;BME280;17796;49.296;-117.656;2023-03-21T20:59:53;95600;;;13.78337;23.52192
31162;BME280;17796;49.296;-117.656;2023-03-21T21:14:57;95500;;;13.5115;23.57753
31162;BME280;17796;49.296;-117.656;2023-03-21T21:30:01;95500;;;11.84787;25.31866
31162;BME280;17796;49.296;-117.656;2023-03-21T21:45:05;95500;;;12.96616;24.25451
31162;BME280;17796;49.296;-117.656;2023-03-21T22:00:10;95500;;;13.24439;24.7426
31162;BME280;17796;49.296;-117.656;2023-03-21T22:15:14;95500;;;13.46259;23.72238
31162;BME280;17796;49.296;-117.656;2023-03-21T22:30:18;95500;;;12.2471;24.25616
31162;BME280;17796;49.296;-117.656;2023-03-21T22:45:23;95500;;;13.94377;24.67921
31162;BME280;17796;49.296;-117.656;2023-03-21T23:00:27;95500;;;13.56581;21.60547
31162;BME280;17796;49.296;-117.656;2023-03-21T23:15:31;95500;;;14.07367;24.78945
31162;BME280;17796;49.296;-117.656;2023-03-21T23:30:36;95400;;;13.48101;23.72745
31162;BME280;17796;49.296;-117.656;2023-03-21T23:45:40;95400;;;14.61203;23.08434
